createdAt,value
2023-04-08T00:00:17.456Z,100.00
2023-04-08T00:02:44.150Z,100.00
2023-04-08T00:05:10.726Z,100.00
2023-04-08T00:07:37.507Z,100.00
2023-04-08T00:10:04.429Z,100.00
2023-04-08T00:12:30.920Z,100.00
2023-04-08T00:14:58.032Z,100.00
2023-04-08T00:17:24.501Z,99.68
2023-04-08T00:19:51.731Z,99.01
2023-04-08T00:22:18.289Z,98.57
2023-04-08T00:24:44.766Z,98.37
2023-04-08T00:27:11.222Z,98.92
2023-04-08T00:29:37.701Z,100.00
2023-04-08T00:32:04.820Z,99.39
2023-04-08T00:34:31.273Z,99.39
2023-04-08T00:36:57.871Z,99.56
2023-04-08T00:39:24.366Z,98.96
2023-04-08T00:41:50.915Z,98.32
2023-04-08T00:44:17.435Z,98.27
2023-04-08T00:46:44.140Z,98.42
2023-04-08T00:49:10.738Z,98.11
2023-04-08T00:51:37.338Z,98.61
2023-04-08T00:54:05.698Z,96.51
2023-04-08T00:56:34.233Z,97.13
2023-04-08T00:59:01.283Z,97.57
2023-04-08T01:01:33.631Z,98.14
2023-04-08T01:04:22.432Z,96.80
2023-04-08T01:07:17.365Z,99.26
2023-04-08T01:09:48.098Z,100.00
2023-04-08T01:12:20.818Z,99.45
2023-04-08T01:14:48.796Z,100.00
2023-04-08T01:17:19.400Z,99.44
2023-04-08T01:19:47.842Z,99.73
2023-04-08T01:22:37.328Z,100.00
2023-04-08T01:25:15.064Z,100.00
2023-04-08T01:27:43.122Z,100.00
2023-04-08T01:30:10.628Z,99.98
2023-04-08T01:32:39.080Z,99.57
2023-04-08T01:35:06.823Z,98.96
2023-04-08T01:37:33.854Z,99.70
2023-04-08T01:40:02.196Z,100.00
2023-04-08T01:42:29.835Z,100.00
2023-04-08T01:44:59.189Z,99.29
2023-04-08T01:47:27.099Z,100.00
2023-04-08T01:49:54.590Z,100.00
2023-04-08T01:52:23.324Z,100.00
2023-04-08T01:54:49.840Z,100.00
2023-04-08T01:57:22.698Z,100.00
2023-04-08T01:59:52.476Z,100.00
2023-04-08T02:02:24.674Z,100.00
2023-04-08T02:04:51.341Z,100.00
2023-04-08T02:07:18.438Z,100.00
2023-04-08T02:09:44.927Z,100.00
2023-04-08T02:12:11.908Z,100.00
2023-04-08T02:14:38.420Z,100.00
2023-04-08T02:17:17.298Z,100.00
2023-04-08T02:20:03.502Z,100.00
2023-04-08T02:22:33.336Z,100.00
2023-04-08T02:25:01.311Z,100.00
2023-04-08T02:27:29.758Z,100.00
2023-04-08T02:29:57.833Z,100.00
2023-04-08T02:32:26.201Z,100.00
2023-04-08T02:34:54.429Z,100.00
2023-04-08T02:37:21.178Z,100.00
2023-04-08T02:39:47.652Z,100.00
2023-04-08T02:42:14.139Z,100.00
2023-04-08T02:44:41.043Z,100.00
2023-04-08T02:47:07.504Z,100.00
2023-04-08T02:49:34.015Z,100.00
2023-04-08T02:52:00.526Z,100.00
2023-04-08T02:54:27.009Z,100.00
2023-04-08T02:56:53.519Z,100.00
2023-04-08T02:59:20.009Z,100.00
2023-04-08T03:01:46.560Z,99.93
2023-04-08T03:04:13.126Z,100.00
2023-04-08T03:06:39.655Z,100.00
2023-04-08T03:09:06.129Z,100.00
2023-04-08T03:11:32.674Z,100.00
2023-04-08T03:13:59.204Z,100.00
2023-04-08T03:16:25.822Z,100.00
2023-04-08T03:18:52.742Z,100.00
2023-04-08T03:21:19.397Z,100.00
2023-04-08T03:23:45.972Z,100.00
2023-04-08T03:26:12.495Z,100.00
2023-04-08T03:28:39.015Z,100.00
2023-04-08T03:31:05.897Z,100.00
2023-04-08T03:33:32.347Z,100.00
2023-04-08T03:35:58.947Z,100.00
2023-04-08T03:38:25.615Z,100.00
2023-04-08T03:40:52.070Z,100.00
2023-04-08T03:43:21.896Z,100.00
2023-04-08T03:45:48.451Z,100.00
2023-04-08T03:48:15.006Z,100.00
2023-04-08T03:50:41.471Z,100.00
2023-04-08T03:53:11.190Z,100.00
2023-04-08T03:55:37.686Z,100.00
2023-04-08T03:58:04.237Z,100.00
2023-04-08T04:00:30.868Z,100.00
2023-04-08T04:02:57.385Z,100.00
2023-04-08T04:05:23.963Z,100.00
2023-04-08T04:07:50.579Z,100.00
2023-04-08T04:10:17.125Z,100.00
2023-04-08T04:12:44.752Z,100.00
2023-04-08T04:15:11.824Z,100.00
2023-04-08T04:17:38.323Z,100.00
2023-04-08T04:20:06.447Z,100.00
2023-04-08T04:22:32.981Z,100.00
2023-04-08T04:24:59.538Z,100.00
2023-04-08T04:27:26.054Z,100.00
2023-04-08T04:29:52.563Z,100.00
2023-04-08T04:32:19.557Z,100.00
2023-04-08T04:34:46.316Z,100.00
2023-04-08T04:37:13.726Z,100.00
2023-04-08T04:39:40.570Z,100.00
2023-04-08T04:42:07.180Z,100.00
2023-04-08T04:44:33.714Z,100.00
2023-04-08T04:47:00.287Z,100.00
2023-04-08T04:49:26.840Z,100.00
2023-04-08T04:51:53.355Z,100.00
2023-04-08T04:54:19.896Z,100.00
2023-04-08T04:56:46.750Z,100.00
2023-04-08T04:59:13.187Z,100.00
2023-04-08T05:01:41.086Z,100.00
2023-04-08T05:04:07.840Z,100.00
2023-04-08T05:06:34.917Z,100.00
2023-04-08T05:09:01.710Z,100.00
2023-04-08T05:11:28.186Z,100.00
2023-04-08T05:13:54.643Z,100.00
2023-04-08T05:16:21.175Z,100.00
2023-04-08T05:18:47.721Z,100.00
2023-04-08T05:21:14.251Z,100.00
2023-04-08T05:23:40.877Z,100.00
2023-04-08T05:26:08.820Z,100.00
2023-04-08T05:28:35.726Z,100.00
2023-04-08T05:31:02.206Z,100.00
2023-04-08T05:33:28.665Z,100.00
2023-04-08T05:35:55.158Z,100.00
2023-04-08T05:38:21.695Z,100.00
2023-04-08T05:40:48.165Z,100.00
2023-04-08T05:43:14.656Z,100.00
2023-04-08T05:45:41.075Z,100.00
2023-04-08T05:48:07.562Z,100.00
2023-04-08T05:50:35.570Z,100.00
2023-04-08T05:53:02.004Z,100.00
2023-04-08T05:55:28.494Z,100.00
2023-04-08T05:57:54.981Z,100.00
2023-04-08T06:00:21.959Z,100.00
2023-04-08T06:02:48.569Z,100.00
2023-04-08T06:05:15.505Z,100.00
2023-04-08T06:07:42.011Z,100.00
2023-04-08T06:10:08.928Z,100.00
2023-04-08T06:12:37.413Z,100.00
2023-04-08T06:15:04.513Z,100.00
2023-04-08T06:17:30.945Z,100.00
2023-04-08T06:19:57.440Z,100.00
2023-04-08T06:22:24.118Z,100.00
2023-04-08T06:24:50.651Z,100.00
2023-04-08T06:27:17.143Z,100.00
2023-04-08T06:29:43.640Z,99.82
2023-04-08T06:32:10.619Z,99.40
2023-04-08T06:34:37.090Z,100.00
2023-04-08T06:37:03.901Z,99.93
2023-04-08T06:39:30.405Z,100.00
2023-04-08T06:41:58.087Z,98.63
2023-04-08T06:44:24.969Z,98.29
2023-04-08T06:46:51.504Z,97.46
2023-04-08T06:49:18.109Z,95.93
2023-04-08T06:51:44.610Z,95.86
2023-04-08T06:54:11.153Z,94.42
2023-04-08T06:56:37.758Z,92.41
2023-04-08T06:59:05.714Z,88.32
2023-04-08T07:01:32.643Z,85.57
2023-04-08T07:03:59.376Z,82.30
2023-04-08T07:06:25.980Z,79.57
2023-04-08T07:08:52.435Z,76.32
2023-04-08T07:11:18.929Z,76.88
2023-04-08T07:13:45.364Z,73.06
2023-04-08T07:16:11.820Z,72.42
2023-04-08T07:18:38.265Z,71.64
2023-04-08T07:21:04.792Z,69.16
2023-04-08T07:23:31.485Z,70.00
2023-04-08T07:26:03.163Z,69.61
2023-04-08T07:28:29.648Z,68.82
2023-04-08T07:30:56.107Z,67.40
2023-04-08T07:33:23.780Z,64.57
2023-04-08T07:35:50.371Z,66.86
2023-04-08T07:38:16.868Z,65.56
2023-04-08T07:40:43.351Z,65.74
2023-04-08T07:43:09.825Z,68.47
2023-04-08T07:45:36.289Z,66.59
2023-04-08T07:48:02.793Z,65.98
2023-04-08T07:50:29.267Z,67.08
2023-04-08T07:52:56.704Z,68.43
2023-04-08T07:55:23.193Z,68.90
2023-04-08T07:57:49.852Z,68.15
2023-04-08T08:00:21.504Z,67.81
2023-04-08T08:02:48.857Z,70.68
2023-04-08T08:05:15.535Z,68.76
2023-04-08T08:07:42.341Z,69.02
2023-04-08T08:10:09.941Z,67.52
2023-04-08T08:12:36.555Z,68.95
2023-04-08T08:15:03.651Z,67.10
2023-04-08T08:17:33.545Z,66.90
2023-04-08T08:20:01.100Z,65.12
2023-04-08T08:22:27.719Z,67.03
2023-04-08T08:24:57.888Z,65.02
2023-04-08T08:27:24.478Z,64.17
2023-04-08T08:29:51.221Z,62.25
2023-04-08T08:32:17.745Z,61.73
2023-04-08T08:34:44.403Z,63.02
2023-04-08T08:37:11.085Z,66.17
2023-04-08T08:39:37.591Z,62.98
2023-04-08T08:42:04.183Z,62.30
2023-04-08T08:44:30.856Z,59.95
2023-04-08T08:46:57.513Z,59.59
2023-04-08T08:49:24.134Z,57.27
2023-04-08T08:51:52.957Z,60.48
2023-04-08T08:54:19.534Z,60.13
2023-04-08T08:56:46.031Z,65.04
2023-04-08T08:59:12.514Z,60.12
2023-04-08T09:01:41.548Z,61.06
2023-04-08T09:04:12.695Z,58.68
2023-04-08T09:06:39.849Z,58.30
2023-04-08T09:09:10.440Z,56.13
2023-04-08T09:11:40.821Z,54.66
2023-04-08T09:14:23.437Z,53.86
2023-04-08T09:16:51.579Z,51.78
2023-04-08T09:19:18.622Z,52.12
2023-04-08T09:21:45.420Z,54.27
2023-04-08T09:24:28.845Z,51.81
2023-04-08T09:26:56.608Z,53.93
2023-04-08T09:29:29.865Z,54.55
2023-04-08T09:32:00.457Z,53.44
2023-04-08T09:34:29.713Z,53.59
2023-04-08T09:36:56.739Z,52.52
2023-04-08T09:39:24.068Z,52.61
2023-04-08T09:41:52.779Z,54.73
2023-04-08T09:44:21.673Z,54.34
2023-04-08T09:46:51.717Z,55.43
2023-04-08T09:49:27.628Z,55.88
2023-04-08T09:52:08.003Z,55.59
2023-04-08T09:54:59.767Z,57.01
2023-04-08T09:57:34.276Z,60.48
2023-04-08T10:00:05.946Z,59.38
2023-04-08T10:02:41.116Z,58.32
2023-04-08T10:05:08.597Z,60.58
2023-04-08T10:07:36.000Z,59.87
2023-04-08T10:10:03.951Z,59.79
2023-04-08T10:12:31.044Z,60.08
2023-04-08T10:15:26.505Z,61.99
2023-04-08T10:17:54.383Z,61.64
2023-04-08T10:20:36.006Z,63.00
2023-04-08T10:23:13.496Z,64.13
2023-04-08T10:25:48.161Z,64.46
2023-04-08T10:28:15.280Z,64.24
2023-04-08T10:30:42.885Z,63.07
2023-04-08T10:33:21.848Z,62.46
2023-04-08T10:35:50.209Z,64.01
2023-04-08T10:38:17.717Z,66.41
2023-04-08T10:40:45.220Z,66.11
2023-04-08T10:43:13.382Z,66.09
2023-04-08T10:45:40.668Z,65.29
2023-04-08T10:48:14.586Z,65.29
2023-04-08T10:50:41.872Z,63.83
2023-04-08T10:53:08.881Z,63.51
2023-04-08T10:55:35.650Z,64.16
2023-04-08T10:58:09.574Z,63.77
2023-04-08T11:00:38.196Z,63.56
2023-04-08T11:03:08.584Z,62.71
2023-04-08T11:05:37.069Z,61.73
2023-04-08T11:08:04.392Z,62.71
2023-04-08T11:10:31.315Z,60.32
2023-04-08T11:12:58.364Z,59.79
2023-04-08T11:15:25.425Z,60.39
2023-04-08T11:17:53.508Z,59.57
2023-04-08T11:20:20.765Z,59.00
2023-04-08T11:22:47.580Z,60.94
2023-04-08T11:25:14.751Z,58.61
2023-04-08T11:27:41.625Z,62.21
2023-04-08T11:30:10.451Z,60.31
2023-04-08T11:32:38.295Z,62.38
2023-04-08T11:35:05.562Z,60.98
2023-04-08T11:37:39.864Z,58.78
2023-04-08T11:40:11.264Z,58.11
2023-04-08T11:42:39.125Z,63.04
2023-04-08T11:45:13.805Z,58.35
2023-04-08T11:47:40.597Z,56.99
2023-04-08T11:50:08.086Z,58.29
2023-04-08T11:52:47.847Z,58.74
2023-04-08T11:55:32.003Z,58.19
2023-04-08T11:58:04.224Z,58.09
2023-04-08T12:00:31.337Z,55.50
2023-04-08T12:02:57.938Z,54.64
2023-04-08T12:05:24.516Z,52.57
2023-04-08T12:07:51.114Z,53.66
2023-04-08T12:10:17.662Z,52.59
2023-04-08T12:12:44.266Z,51.63
2023-04-08T12:15:11.346Z,49.28
2023-04-08T12:17:38.901Z,48.45
2023-04-08T12:20:06.867Z,47.51
2023-04-08T12:22:33.787Z,48.23
2023-04-08T12:25:00.298Z,49.89
2023-04-08T12:27:26.730Z,50.00
2023-04-08T12:29:53.482Z,49.45
2023-04-08T12:34:46.586Z,51.66
2023-04-08T12:37:13.329Z,51.55
2023-04-08T12:39:40.245Z,52.73
2023-04-08T12:42:07.105Z,53.53
2023-04-08T12:44:33.547Z,55.10
2023-04-08T12:47:00.000Z,55.08
2023-04-08T12:49:28.032Z,54.01
2023-04-08T12:51:54.991Z,55.28
2023-04-08T12:54:21.759Z,55.42
2023-04-08T12:56:48.919Z,53.58
2023-04-08T12:59:16.092Z,55.38
2023-04-08T13:01:43.252Z,54.75
2023-04-08T13:04:09.898Z,54.48
2023-04-08T13:06:36.450Z,54.32
2023-04-08T13:09:02.939Z,54.84
2023-04-08T13:11:29.425Z,54.27
2023-04-08T13:13:56.173Z,54.59
2023-04-08T13:16:22.894Z,52.43
2023-04-08T13:18:49.617Z,51.36
2023-04-08T13:21:16.501Z,52.02
2023-04-08T13:23:43.027Z,50.34
2023-04-08T13:26:09.541Z,47.51
2023-04-08T13:28:49.662Z,46.32
2023-04-08T13:31:20.645Z,44.38
2023-04-08T13:33:47.095Z,45.00
2023-04-08T13:36:13.619Z,46.06
2023-04-08T13:38:40.133Z,47.93
2023-04-08T13:41:06.741Z,47.82
2023-04-08T13:43:33.215Z,47.90
2023-04-08T13:45:59.787Z,51.99
2023-04-08T13:48:26.464Z,50.38
2023-04-08T13:50:52.936Z,50.21
2023-04-08T13:53:19.430Z,50.32
2023-04-08T13:55:46.182Z,52.40
2023-04-08T13:58:22.905Z,53.16
2023-04-08T14:00:51.617Z,56.27
2023-04-08T14:03:18.953Z,55.12
2023-04-08T14:05:45.906Z,54.74
2023-04-08T14:08:13.638Z,55.43
2023-04-08T14:10:41.926Z,54.38
2023-04-08T14:13:12.700Z,53.10
2023-04-08T14:15:39.145Z,53.58
2023-04-08T14:18:06.759Z,56.05
2023-04-08T14:20:35.580Z,57.11
2023-04-08T14:23:02.084Z,56.85
2023-04-08T14:25:28.652Z,57.62
2023-04-08T14:27:58.892Z,56.94
2023-04-08T14:30:27.230Z,56.26
2023-04-08T14:32:54.385Z,57.57
2023-04-08T14:35:21.527Z,56.86
2023-04-08T14:37:48.085Z,57.65
2023-04-08T14:40:14.594Z,56.40
2023-04-08T14:42:41.328Z,57.06
2023-04-08T14:45:08.627Z,55.90
2023-04-08T14:47:35.240Z,55.28
2023-04-08T14:50:02.077Z,55.58
2023-04-08T14:52:28.627Z,56.31
2023-04-08T14:54:55.054Z,55.36
2023-04-08T14:57:21.553Z,54.50
2023-04-08T14:59:48.177Z,54.07
2023-04-08T15:02:14.815Z,55.01
2023-04-08T15:04:41.363Z,54.92
2023-04-08T15:07:08.245Z,53.45
2023-04-08T15:09:34.920Z,53.97
2023-04-08T15:12:01.774Z,53.80
2023-04-08T15:14:28.324Z,53.68
2023-04-08T15:16:54.850Z,53.98
2023-04-08T15:19:21.338Z,55.63
2023-04-08T15:21:47.823Z,55.14
2023-04-08T15:24:14.430Z,54.60
2023-04-08T15:26:41.128Z,53.66
2023-04-08T15:29:07.816Z,53.57
2023-04-08T15:31:35.126Z,53.58
2023-04-08T15:34:02.886Z,52.97
2023-04-08T15:36:30.239Z,53.90
2023-04-08T15:38:57.998Z,53.95
2023-04-08T15:41:24.697Z,53.46
2023-04-08T15:43:53.199Z,52.49
2023-04-08T15:46:23.566Z,53.14
2023-04-08T15:48:50.895Z,55.48
2023-04-08T15:51:17.988Z,54.35
2023-04-08T15:53:44.638Z,55.58
2023-04-08T15:56:16.219Z,55.05
2023-04-08T15:58:43.454Z,54.92
2023-04-08T16:01:10.487Z,55.48
2023-04-08T16:03:37.424Z,56.52
2023-04-08T16:06:05.681Z,56.38
2023-04-08T16:08:33.553Z,56.37
2023-04-08T16:11:04.341Z,56.99
2023-04-08T16:13:31.470Z,57.35
2023-04-08T16:16:04.136Z,58.31
2023-04-08T16:18:30.768Z,58.21
2023-04-08T16:20:57.286Z,57.19
2023-04-08T16:23:23.810Z,57.08
2023-04-08T16:25:50.353Z,58.28
2023-04-08T16:28:18.065Z,57.73
2023-04-08T16:30:44.744Z,57.27
2023-04-08T16:33:11.392Z,57.16
2023-04-08T16:35:38.597Z,56.81
2023-04-08T16:38:06.111Z,57.64
2023-04-08T16:40:33.566Z,57.08
2023-04-08T16:43:01.115Z,57.64
2023-04-08T16:45:32.529Z,58.13
2023-04-08T16:48:00.395Z,58.40
2023-04-08T16:50:28.288Z,59.46
2023-04-08T16:52:54.874Z,59.55
2023-04-08T16:55:21.391Z,60.26
2023-04-08T16:57:47.934Z,60.71
2023-04-08T17:00:16.881Z,60.76
2023-04-08T17:02:44.611Z,61.27
2023-04-08T17:05:11.413Z,61.82
2023-04-08T17:07:38.724Z,61.88
2023-04-08T17:10:06.102Z,63.19
2023-04-08T17:12:33.014Z,62.79
2023-04-08T17:14:59.462Z,62.64
2023-04-08T17:17:25.925Z,63.62
2023-04-08T17:19:53.125Z,64.67
2023-04-08T17:22:19.661Z,65.62
2023-04-08T17:24:48.027Z,65.80
2023-04-08T17:27:14.689Z,66.51
2023-04-08T17:29:41.477Z,67.27
2023-04-08T17:32:09.204Z,68.75
2023-04-08T17:34:35.950Z,68.72
2023-04-08T17:37:02.750Z,69.42
2023-04-08T17:39:30.420Z,69.62
2023-04-08T17:41:57.890Z,70.40
2023-04-08T17:44:29.679Z,70.09
2023-04-08T17:46:56.566Z,71.75
2023-04-08T17:49:23.404Z,72.79
2023-04-08T17:51:50.294Z,74.19
2023-04-08T17:54:17.674Z,74.02
2023-04-08T17:56:45.156Z,73.59
2023-04-08T17:59:12.614Z,74.13
2023-04-08T18:01:39.420Z,75.41
2023-04-08T18:04:08.257Z,75.20
2023-04-08T18:06:35.232Z,76.39
2023-04-08T18:09:03.776Z,75.45
2023-04-08T18:11:30.925Z,75.54
2023-04-08T18:13:57.538Z,74.68
2023-04-08T18:16:24.080Z,74.06
2023-04-08T18:18:50.632Z,74.17
2023-04-08T18:21:21.092Z,74.97
2023-04-08T18:23:49.432Z,75.05
2023-04-08T18:26:16.155Z,75.65
2023-04-08T18:28:42.708Z,77.05
2023-04-08T18:31:09.370Z,75.53
2023-04-08T18:33:36.370Z,75.42
2023-04-08T18:36:10.218Z,74.94
2023-04-08T18:38:36.854Z,74.00
2023-04-08T18:41:04.228Z,74.87
2023-04-08T18:43:31.022Z,75.04
2023-04-08T18:45:58.312Z,76.37
2023-04-08T18:48:24.832Z,75.94
2023-04-08T18:50:51.397Z,76.09
2023-04-08T18:53:17.888Z,74.92
2023-04-08T18:55:45.003Z,74.98
2023-04-08T18:58:12.192Z,75.26
2023-04-08T19:00:41.916Z,75.35
2023-04-08T19:03:10.295Z,77.19
2023-04-08T19:05:37.632Z,76.85
2023-04-08T19:08:04.731Z,76.74
2023-04-08T19:10:32.534Z,76.12
2023-04-08T19:12:59.811Z,76.50
2023-04-08T19:15:26.581Z,76.89
2023-04-08T19:17:53.159Z,76.35
2023-04-08T19:20:19.892Z,75.74
2023-04-08T19:22:48.336Z,83.87
2023-04-08T19:25:14.925Z,77.50
2023-04-08T19:27:41.412Z,78.74
2023-04-08T19:30:08.297Z,80.57
2023-04-08T19:32:35.605Z,80.49
2023-04-08T19:35:02.416Z,80.54
2023-04-08T19:37:28.913Z,79.46
2023-04-08T19:39:55.422Z,80.68
2023-04-08T19:42:22.376Z,80.69
2023-04-08T19:44:49.442Z,81.91
2023-04-08T19:47:17.562Z,82.68
2023-04-08T19:49:44.117Z,81.79
2023-04-08T19:52:11.597Z,82.10
2023-04-08T19:54:38.114Z,81.41
2023-04-08T19:57:08.097Z,81.38
2023-04-08T19:59:35.102Z,83.16
2023-04-08T20:02:03.383Z,82.12
2023-04-08T20:04:30.032Z,81.58
2023-04-08T20:06:56.626Z,81.29
2023-04-08T20:09:23.170Z,81.88
2023-04-08T20:11:49.614Z,83.12
2023-04-08T20:14:16.963Z,83.29
2023-04-08T20:16:43.775Z,82.12
2023-04-08T20:19:10.329Z,82.23
2023-04-08T20:21:36.802Z,81.05
2023-04-08T20:24:03.848Z,80.79
2023-04-08T20:26:30.386Z,80.96
2023-04-08T20:28:58.632Z,81.09
2023-04-08T20:31:25.609Z,81.12
2023-04-08T20:33:52.207Z,82.70
2023-04-08T20:36:18.762Z,82.65
2023-04-08T20:38:45.388Z,82.83
2023-04-08T20:41:12.351Z,82.86
2023-04-08T20:43:39.543Z,82.35
2023-04-08T20:46:06.123Z,82.64
2023-04-08T20:48:33.279Z,82.76
2023-04-08T20:51:00.163Z,82.94
2023-04-08T20:53:27.385Z,82.72
2023-04-08T20:55:53.854Z,83.09
2023-04-08T20:58:20.503Z,82.90
2023-04-08T21:00:47.723Z,83.65
2023-04-08T21:03:14.764Z,84.12
2023-04-08T21:05:41.893Z,84.79
2023-04-08T21:08:09.005Z,85.90
2023-04-08T21:10:35.486Z,85.87
2023-04-08T21:13:02.011Z,86.96
2023-04-08T21:15:28.576Z,87.47
2023-04-08T21:17:55.322Z,88.14
2023-04-08T21:20:21.945Z,87.65
2023-04-08T21:22:48.590Z,87.23
2023-04-08T21:25:15.601Z,87.85
2023-04-08T21:27:42.956Z,87.73
2023-04-08T21:30:09.990Z,87.75
2023-04-08T21:32:36.492Z,87.26
2023-04-08T21:35:03.431Z,86.98
2023-04-08T21:37:29.930Z,88.43
2023-04-08T21:39:56.389Z,87.87
2023-04-08T21:42:25.050Z,87.72
2023-04-08T21:44:51.605Z,88.40
2023-04-08T21:47:18.071Z,88.26
2023-04-08T21:49:44.735Z,88.05
2023-04-08T21:52:11.285Z,87.92
2023-04-08T21:54:37.913Z,88.61
2023-04-08T21:57:04.454Z,88.31
2023-04-08T21:59:30.920Z,88.37
2023-04-08T22:01:57.519Z,88.31
2023-04-08T22:04:24.137Z,88.01
2023-04-08T22:06:51.260Z,87.58
2023-04-08T22:09:17.903Z,87.71
2023-04-08T22:11:44.453Z,87.98
2023-04-08T22:14:11.112Z,88.69
2023-04-08T22:16:38.303Z,88.55
2023-04-08T22:19:04.919Z,88.67
2023-04-08T22:21:31.647Z,89.10
2023-04-08T22:23:58.161Z,88.77
2023-04-08T22:26:24.703Z,88.54
2023-04-08T22:28:51.741Z,88.43
2023-04-08T22:31:18.547Z,88.52
2023-04-08T22:33:46.160Z,89.33
2023-04-08T22:36:12.757Z,90.01
2023-04-08T22:38:39.269Z,90.09
2023-04-08T22:41:06.008Z,89.88
2023-04-08T22:43:32.496Z,89.39
2023-04-08T22:45:59.038Z,89.39
2023-04-08T22:48:25.955Z,89.10
2023-04-08T22:50:52.928Z,88.95
2023-04-08T22:53:19.461Z,89.45
2023-04-08T22:55:46.022Z,88.34
2023-04-08T22:58:12.854Z,87.43
2023-04-08T23:00:39.330Z,87.64
2023-04-08T23:03:06.240Z,87.01
2023-04-08T23:05:32.846Z,87.29
2023-04-08T23:07:59.367Z,87.84
2023-04-08T23:10:25.954Z,87.83
2023-04-08T23:12:52.506Z,87.29
2023-04-08T23:15:19.326Z,87.62
2023-04-08T23:17:45.953Z,87.83
2023-04-08T23:20:12.875Z,88.10
2023-04-08T23:22:39.388Z,86.77
2023-04-08T23:25:06.556Z,86.37
2023-04-08T23:27:33.124Z,85.70
2023-04-08T23:30:05.455Z,84.35
2023-04-08T23:32:32.968Z,83.54
2023-04-08T23:34:59.964Z,83.09
2023-04-08T23:37:27.454Z,83.16
2023-04-08T23:39:53.986Z,82.76
2023-04-08T23:42:20.798Z,82.87
2023-04-08T23:44:47.863Z,83.28
2023-04-08T23:47:14.383Z,82.79
2023-04-08T23:49:40.915Z,83.46
2023-04-08T23:52:07.397Z,83.16
2023-04-08T23:54:33.887Z,83.48
2023-04-08T23:57:01.542Z,83.45
2023-04-08T23:59:30.924Z,83.12
